createdAt,value
2022-08-26T00:02:02.893Z,11.70
2022-08-26T00:04:31.350Z,12.07
2022-08-26T00:06:59.989Z,11.97
2022-08-26T00:09:30.127Z,12.00
2022-08-26T00:11:56.764Z,11.63
2022-08-26T00:14:30.930Z,11.63
2022-08-26T00:16:58.230Z,12.57
2022-08-26T00:19:24.713Z,11.97
2022-08-26T00:21:52.070Z,12.10
2022-08-26T00:24:21.917Z,12.33
2022-08-26T00:26:49.668Z,12.20
2022-08-26T00:29:16.678Z,12.57
2022-08-26T00:31:45.119Z,12.47
2022-08-26T00:34:12.744Z,12.07
2022-08-26T00:36:40.633Z,11.67
2022-08-26T00:39:16.279Z,12.67
2022-08-26T00:41:43.294Z,13.20
2022-08-26T00:44:11.101Z,12.20
2022-08-26T00:46:46.881Z,11.60
2022-08-26T00:49:43.583Z,11.33
2022-08-26T00:52:15.671Z,11.77
2022-08-26T00:54:49.233Z,13.27
2022-08-26T00:57:19.119Z,12.23
2022-08-26T00:59:51.242Z,13.20
2022-08-26T01:02:19.963Z,11.40
2022-08-26T01:04:48.236Z,12.23
2022-08-26T01:07:30.265Z,13.23
2022-08-26T01:09:59.900Z,11.47
2022-08-26T01:12:28.752Z,12.13
2022-08-26T01:14:55.594Z,11.70
2022-08-26T01:17:23.131Z,12.20
2022-08-26T01:20:04.085Z,12.57
2022-08-26T01:22:42.413Z,12.53
2022-08-26T01:25:10.662Z,12.57
2022-08-26T01:27:37.729Z,12.83
2022-08-26T01:30:06.524Z,13.43
2022-08-26T01:32:36.439Z,13.27
2022-08-26T01:35:07.530Z,13.27
2022-08-26T01:37:39.036Z,12.70
2022-08-26T01:40:10.427Z,13.27
2022-08-26T01:42:37.489Z,11.87
2022-08-26T01:45:13.464Z,12.17
2022-08-26T01:47:42.682Z,12.50
2022-08-26T01:50:27.552Z,12.50
2022-08-26T01:52:56.825Z,13.03
2022-08-26T01:55:25.532Z,11.17
2022-08-26T01:58:05.255Z,12.73
2022-08-26T02:00:35.211Z,13.10
2022-08-26T02:03:17.242Z,12.17
2022-08-26T02:05:48.818Z,13.33
2022-08-26T02:08:25.314Z,12.53
2022-08-26T02:10:54.851Z,13.43
2022-08-26T02:13:23.075Z,11.33
2022-08-26T02:15:52.100Z,12.47
2022-08-26T02:18:20.854Z,12.33
2022-08-26T02:20:51.636Z,11.83
2022-08-26T02:23:19.536Z,13.17
2022-08-26T02:26:04.982Z,12.57
2022-08-26T02:28:41.655Z,13.10
2022-08-26T02:31:09.283Z,12.53
2022-08-26T02:33:36.594Z,13.90
2022-08-26T02:36:21.998Z,13.67
2022-08-26T02:38:48.478Z,12.90
2022-08-26T02:41:15.107Z,13.33
2022-08-26T02:43:41.563Z,12.50
2022-08-26T02:46:08.338Z,13.10
2022-08-26T02:48:36.482Z,12.73
2022-08-26T02:51:04.825Z,12.57
2022-08-26T02:53:31.849Z,12.97
2022-08-26T02:56:03.119Z,12.83
2022-08-26T02:58:30.183Z,11.73
2022-08-26T03:00:56.651Z,13.17
2022-08-26T03:03:23.730Z,13.53
2022-08-26T03:05:50.841Z,13.70
2022-08-26T03:08:17.505Z,13.27
2022-08-26T03:10:44.078Z,13.53
2022-08-26T03:13:10.563Z,12.70
2022-08-26T03:15:37.706Z,13.20
2022-08-26T03:18:08.207Z,13.27
2022-08-26T03:20:35.262Z,12.80
2022-08-26T03:23:01.736Z,12.80
2022-08-26T03:25:29.492Z,12.70
2022-08-26T03:27:55.954Z,12.90
2022-08-26T03:30:44.206Z,13.10
2022-08-26T03:33:13.914Z,12.27
2022-08-26T03:35:43.434Z,12.90
2022-08-26T03:38:10.858Z,13.40
2022-08-26T03:40:39.096Z,13.27
2022-08-26T03:43:13.454Z,12.97
2022-08-26T03:45:43.185Z,11.50
2022-08-26T03:48:12.787Z,12.67
2022-08-26T03:50:39.373Z,12.73
2022-08-26T03:53:12.950Z,13.70
2022-08-26T03:55:41.254Z,14.10
2022-08-26T03:58:11.528Z,14.30
2022-08-26T04:00:38.243Z,13.17
2022-08-26T04:03:05.349Z,12.33
2022-08-26T04:05:39.405Z,13.13
2022-08-26T04:08:06.762Z,12.57
2022-08-26T04:10:34.967Z,13.70
2022-08-26T04:13:03.138Z,13.03
2022-08-26T04:15:30.515Z,12.97
2022-08-26T04:17:57.566Z,11.67
2022-08-26T04:20:24.528Z,12.63
2022-08-26T04:22:51.841Z,14.80
2022-08-26T04:25:20.465Z,13.80
2022-08-26T04:27:47.232Z,13.70
2022-08-26T04:30:15.801Z,13.47
2022-08-26T04:32:43.530Z,13.97
2022-08-26T04:35:10.650Z,13.07
2022-08-26T04:37:37.763Z,13.20
2022-08-26T04:40:06.826Z,14.30
2022-08-26T04:42:35.029Z,14.03
2022-08-26T04:45:10.361Z,14.43
2022-08-26T04:47:38.118Z,15.10
2022-08-26T04:50:06.952Z,13.30
2022-08-26T04:52:38.168Z,14.93
2022-08-26T04:55:08.471Z,14.43
2022-08-26T04:57:39.273Z,14.90
2022-08-26T05:00:10.436Z,13.80
2022-08-26T05:02:41.187Z,15.13
2022-08-26T05:05:10.438Z,13.83
2022-08-26T05:07:36.855Z,15.07
2022-08-26T05:10:05.116Z,15.27
2022-08-26T05:12:36.422Z,14.90
2022-08-26T05:15:06.099Z,15.40
2022-08-26T05:17:35.213Z,15.07
2022-08-26T05:20:05.202Z,15.77
2022-08-26T05:22:38.528Z,15.57
2022-08-26T05:25:06.799Z,15.10
2022-08-26T05:27:35.040Z,15.67
2022-08-26T05:30:01.758Z,16.13
2022-08-26T05:32:28.257Z,15.70
2022-08-26T05:34:57.003Z,14.93
2022-08-26T05:37:25.201Z,15.60
2022-08-26T05:39:52.051Z,16.40
2022-08-26T05:42:24.064Z,16.30
2022-08-26T05:44:55.973Z,16.00
2022-08-26T05:47:24.240Z,16.27
2022-08-26T05:49:51.568Z,16.70
2022-08-26T05:52:19.661Z,15.40
2022-08-26T05:54:46.282Z,17.03
2022-08-26T05:57:14.505Z,15.47
2022-08-26T05:59:40.985Z,15.63
2022-08-26T06:02:08.460Z,16.23
2022-08-26T06:04:36.758Z,16.60
2022-08-26T06:07:04.387Z,16.13
2022-08-26T06:09:32.298Z,15.90
2022-08-26T06:12:01.801Z,15.90
2022-08-26T06:14:30.468Z,15.63
2022-08-26T06:16:57.256Z,15.80
2022-08-26T06:19:23.759Z,15.30
2022-08-26T06:21:54.749Z,15.73
2022-08-26T06:24:43.000Z,14.77
2022-08-26T06:27:13.448Z,15.17
2022-08-26T06:29:40.697Z,15.97
2022-08-26T06:32:08.796Z,15.20
2022-08-26T06:34:35.523Z,17.07
2022-08-26T06:37:03.289Z,17.27
2022-08-26T06:39:31.467Z,15.60
2022-08-26T06:41:59.389Z,15.80
2022-08-26T06:44:26.720Z,15.90
2022-08-26T06:46:53.523Z,15.30
2022-08-26T06:49:27.137Z,15.70
2022-08-26T06:51:58.410Z,15.37
2022-08-26T06:54:25.590Z,15.80
2022-08-26T06:56:52.301Z,16.40
2022-08-26T06:59:18.900Z,16.23
2022-08-26T07:01:46.376Z,16.60
2022-08-26T07:04:20.257Z,18.40
2022-08-26T07:06:52.260Z,18.07
2022-08-26T07:09:21.132Z,17.63
2022-08-26T07:11:48.141Z,17.47
2022-08-26T07:14:16.720Z,17.93
2022-08-26T07:16:43.241Z,16.60
2022-08-26T07:19:11.618Z,16.03
2022-08-26T07:21:41.453Z,17.03
2022-08-26T07:24:09.309Z,16.87
2022-08-26T07:26:38.329Z,15.70
2022-08-26T07:29:06.930Z,15.83
2022-08-26T07:31:39.258Z,15.10
2022-08-26T07:34:10.502Z,15.00
2022-08-26T07:36:37.009Z,14.73
2022-08-26T07:39:04.451Z,14.63
2022-08-26T07:41:31.017Z,15.13
2022-08-26T07:43:58.510Z,15.20
2022-08-26T07:46:27.280Z,14.20
2022-08-26T07:48:57.073Z,13.73
2022-08-26T07:51:24.789Z,13.47
2022-08-26T07:53:52.354Z,14.45
2022-08-26T07:56:20.960Z,13.45
2022-08-26T07:58:51.292Z,13.82
2022-08-26T08:01:18.801Z,12.80
2022-08-26T08:03:45.480Z,13.60
2022-08-26T08:06:12.026Z,12.90
2022-08-26T08:08:41.300Z,12.68
2022-08-26T08:11:08.253Z,14.52
2022-08-26T08:13:37.989Z,14.93
2022-08-26T08:16:05.392Z,14.20
2022-08-26T08:18:31.918Z,13.98
2022-08-26T08:21:21.097Z,13.88
2022-08-26T08:23:47.212Z,12.88
2022-08-26T08:26:14.085Z,13.55
2022-08-26T08:28:46.223Z,14.13
2022-08-26T08:31:56.070Z,13.73
2022-08-26T08:34:15.588Z,13.52
2022-08-26T08:36:42.142Z,13.75
2022-08-26T08:39:10.453Z,14.07
2022-08-26T08:41:55.340Z,12.77
2022-08-26T08:47:04.385Z,13.55
2022-08-26T08:49:34.492Z,12.95
2022-08-26T08:52:18.783Z,12.57
2022-08-26T08:54:46.570Z,12.73
2022-08-26T08:57:27.237Z,12.50
2022-08-26T09:00:08.221Z,12.63
2022-08-26T09:02:43.077Z,12.60
2022-08-26T09:05:24.718Z,11.45
2022-08-26T09:08:12.488Z,11.82
2022-08-26T09:10:43.623Z,11.88
2022-08-26T09:13:16.808Z,11.93
2022-08-26T09:16:02.880Z,12.15
2022-08-26T09:18:50.150Z,12.27
2022-08-26T09:21:19.912Z,11.93
2022-08-26T09:23:49.618Z,11.70
2022-08-26T09:26:19.324Z,11.68
2022-08-26T09:28:55.085Z,11.35
2022-08-26T09:31:31.861Z,12.15
2022-08-26T09:34:05.352Z,11.40
2022-08-26T09:36:41.351Z,11.45
2022-08-26T09:39:29.262Z,11.38
2022-08-26T09:42:23.160Z,12.63
2022-08-26T09:44:54.326Z,12.88
2022-08-26T09:47:30.133Z,11.82
2022-08-26T09:50:19.954Z,10.93
2022-08-26T09:52:47.387Z,11.30
2022-08-26T09:55:22.607Z,11.20
2022-08-26T09:57:54.662Z,11.68
2022-08-26T10:00:32.082Z,10.85
2022-08-26T10:03:02.768Z,11.25
2022-08-26T10:05:57.041Z,11.55
2022-08-26T10:08:34.487Z,11.45
2022-08-26T10:11:04.499Z,11.00
2022-08-26T10:13:31.257Z,11.10
2022-08-26T10:16:06.114Z,11.73
2022-08-26T10:18:42.275Z,11.27
2022-08-26T10:21:11.688Z,11.68
2022-08-26T10:23:43.304Z,11.55
2022-08-26T10:26:22.325Z,12.00
2022-08-26T10:29:04.077Z,11.32
2022-08-26T10:31:46.744Z,12.20
2022-08-26T10:34:16.953Z,10.57
2022-08-26T10:37:16.676Z,11.95
2022-08-26T10:40:01.992Z,10.63
2022-08-26T10:42:52.959Z,10.55
2022-08-26T10:45:25.328Z,10.23
2022-08-26T10:48:10.091Z,10.25
2022-08-26T10:50:39.414Z,10.85
2022-08-26T10:53:17.934Z,10.35
2022-08-26T10:56:03.346Z,11.05
2022-08-26T10:58:56.095Z,11.05
2022-08-26T11:01:43.474Z,11.60
2022-08-26T11:04:48.346Z,11.05
2022-08-26T11:07:36.870Z,10.90
2022-08-26T11:10:28.594Z,10.60
2022-08-26T11:13:00.919Z,10.98
2022-08-26T11:15:30.234Z,11.13
2022-08-26T11:18:04.659Z,10.82
2022-08-26T11:20:41.998Z,10.85
2022-08-26T11:23:23.964Z,11.00
2022-08-26T11:25:57.267Z,10.70
2022-08-26T11:28:35.481Z,9.95
2022-08-26T11:31:04.481Z,9.82
2022-08-26T11:33:51.293Z,10.45
2022-08-26T11:36:42.746Z,9.57
2022-08-26T11:39:24.874Z,9.65
2022-08-26T11:41:55.661Z,9.63
2022-08-26T11:44:37.583Z,9.02
2022-08-26T11:47:11.486Z,10.40
2022-08-26T11:49:38.717Z,10.52
2022-08-26T11:52:21.117Z,10.38
2022-08-26T11:55:02.515Z,10.45
2022-08-26T11:57:32.889Z,9.38
2022-08-26T12:00:00.239Z,10.00
2022-08-26T12:02:27.814Z,9.75
2022-08-26T12:04:54.863Z,9.90
2022-08-26T12:07:26.032Z,9.70
2022-08-26T12:10:02.299Z,9.40
2022-08-26T12:12:38.543Z,9.25
2022-08-26T12:15:18.592Z,9.00
2022-08-26T12:17:50.487Z,8.10
2022-08-26T12:20:54.007Z,8.38
2022-08-26T12:23:40.869Z,8.48
2022-08-26T12:26:21.307Z,7.45
2022-08-26T12:29:00.822Z,7.40
2022-08-26T12:31:43.369Z,7.05
2022-08-26T12:34:17.841Z,6.50
2022-08-26T12:36:53.726Z,7.35
2022-08-26T12:39:28.937Z,7.28
2022-08-26T12:41:58.390Z,8.07
2022-08-26T12:44:53.745Z,8.45
2022-08-26T12:47:42.645Z,9.25
2022-08-26T12:50:27.231Z,9.00
2022-08-26T12:53:02.280Z,9.63
2022-08-26T12:55:33.577Z,10.25
2022-08-26T12:58:22.898Z,10.80
2022-08-26T13:00:56.457Z,10.13
2022-08-26T13:03:50.188Z,11.15
2022-08-26T13:06:27.700Z,10.45
2022-08-26T13:09:00.185Z,10.57
2022-08-26T13:11:35.507Z,12.23
2022-08-26T13:14:21.009Z,11.50
2022-08-26T13:16:50.563Z,11.32
2022-08-26T13:19:22.449Z,11.80
2022-08-26T13:21:57.417Z,11.00
2022-08-26T13:24:37.124Z,11.27
2022-08-26T13:27:07.523Z,11.77
2022-08-26T13:29:35.694Z,10.13
2022-08-26T13:32:04.755Z,10.98
2022-08-26T13:34:31.491Z,10.00
2022-08-26T13:36:59.113Z,9.20
2022-08-26T13:39:26.583Z,10.90
2022-08-26T13:41:53.312Z,9.95
2022-08-26T13:44:21.497Z,9.93
2022-08-26T13:46:48.117Z,11.40
2022-08-26T13:49:14.593Z,10.98
2022-08-26T13:51:41.789Z,10.48
2022-08-26T13:54:08.793Z,10.40
2022-08-26T13:56:36.176Z,10.48
2022-08-26T13:59:04.079Z,10.38
2022-08-26T14:01:32.090Z,11.20
2022-08-26T14:03:59.698Z,10.57
2022-08-26T14:06:26.544Z,10.80
2022-08-26T14:08:53.207Z,10.25
2022-08-26T14:11:21.368Z,10.35
2022-08-26T14:13:47.896Z,10.80
2022-08-26T14:16:27.103Z,10.77
2022-08-26T14:18:54.203Z,10.63
2022-08-26T14:21:21.305Z,11.07
2022-08-26T14:23:47.898Z,11.27
2022-08-26T14:26:28.940Z,12.32
2022-08-26T14:28:58.592Z,11.68
2022-08-26T14:31:26.898Z,11.75
2022-08-26T14:33:54.861Z,11.52
2022-08-26T14:36:33.354Z,11.18
2022-08-26T14:39:05.031Z,11.20
2022-08-26T14:41:33.743Z,11.63
2022-08-26T14:44:05.930Z,11.65
2022-08-26T14:46:39.886Z,10.57
2022-08-26T14:49:10.394Z,9.88
2022-08-26T14:51:38.078Z,10.07
2022-08-26T14:54:13.787Z,9.35
2022-08-26T14:56:56.486Z,10.70
2022-08-26T14:59:33.212Z,10.50
2022-08-26T15:02:00.631Z,9.60
2022-08-26T15:04:28.519Z,10.73
2022-08-26T15:06:56.847Z,10.82
2022-08-26T15:09:24.860Z,11.18
2022-08-26T15:11:53.094Z,11.40
2022-08-26T15:14:21.590Z,10.93
2022-08-26T15:16:50.160Z,11.55
2022-08-26T15:19:17.725Z,11.25
2022-08-26T15:21:45.481Z,10.85
2022-08-26T15:24:13.133Z,10.90
2022-08-26T15:26:39.962Z,10.45
2022-08-26T15:29:06.885Z,10.73
2022-08-26T15:31:38.584Z,10.63
2022-08-26T15:34:12.138Z,10.70
2022-08-26T15:36:44.685Z,11.38
2022-08-26T15:39:11.342Z,11.43
2022-08-26T15:41:38.378Z,11.23
2022-08-26T15:44:07.702Z,10.95
2022-08-26T15:46:35.871Z,12.20
2022-08-26T15:49:05.864Z,11.23
2022-08-26T15:51:45.513Z,12.98
2022-08-26T15:54:12.738Z,13.18
2022-08-26T15:56:39.206Z,13.85
2022-08-26T15:59:08.386Z,14.20
2022-08-26T16:01:36.046Z,14.63
2022-08-26T16:04:04.592Z,14.45
2022-08-26T16:06:35.939Z,14.68
2022-08-26T16:09:05.852Z,14.30
2022-08-26T16:11:33.973Z,14.38
2022-08-26T16:14:00.902Z,15.20
2022-08-26T16:16:27.517Z,16.17
2022-08-26T16:18:54.656Z,16.13
2022-08-26T16:21:25.468Z,16.63
2022-08-26T16:23:52.211Z,17.13
2022-08-26T16:26:22.639Z,16.43
2022-08-26T16:28:49.074Z,17.90
2022-08-26T16:31:16.180Z,18.17
2022-08-26T16:33:42.908Z,17.63
2022-08-26T16:36:10.133Z,18.08
2022-08-26T16:38:38.640Z,20.03
2022-08-26T16:41:06.163Z,21.33
2022-08-26T16:43:33.949Z,20.93
2022-08-26T16:46:00.634Z,23.33
2022-08-26T16:48:27.940Z,24.47
2022-08-26T16:50:55.493Z,22.60
2022-08-26T16:53:25.663Z,24.00
2022-08-26T16:55:52.182Z,25.90
2022-08-26T16:58:22.261Z,24.50
2022-08-26T17:00:49.529Z,26.13
2022-08-26T17:03:16.150Z,24.40
2022-08-26T17:05:42.736Z,26.40
2022-08-26T17:08:09.501Z,25.70
2022-08-26T17:10:37.684Z,26.37
2022-08-26T17:13:07.301Z,25.60
2022-08-26T17:15:35.222Z,24.80
2022-08-26T17:18:02.266Z,25.83
2022-08-26T17:20:29.879Z,23.47
2022-08-26T17:22:56.395Z,25.30
2022-08-26T17:25:27.063Z,25.40
2022-08-26T17:27:53.918Z,25.30
2022-08-26T17:30:25.468Z,26.33
2022-08-26T17:32:52.356Z,25.17
2022-08-26T17:35:20.330Z,25.63
2022-08-26T17:37:47.149Z,26.47
2022-08-26T17:40:18.367Z,27.53
2022-08-26T17:42:44.986Z,26.73
2022-08-26T17:45:12.663Z,26.43
2022-08-26T17:47:41.366Z,27.03
2022-08-26T17:50:12.999Z,26.73
2022-08-26T17:52:41.309Z,27.03
2022-08-26T17:55:17.106Z,26.73
2022-08-26T17:57:43.912Z,25.50
2022-08-26T18:00:22.601Z,25.33
2022-08-26T18:02:49.116Z,25.37
2022-08-26T18:05:17.423Z,25.93
2022-08-26T18:07:44.801Z,24.27
2022-08-26T18:10:15.494Z,27.33
2022-08-26T18:12:42.403Z,25.37
2022-08-26T18:15:11.494Z,24.60
2022-08-26T18:17:39.274Z,26.47
2022-08-26T18:20:16.053Z,24.07
2022-08-26T18:22:43.708Z,25.17
2022-08-26T18:25:11.623Z,25.20
2022-08-26T18:27:38.970Z,24.30
2022-08-26T18:30:13.402Z,24.80
2022-08-26T18:32:42.685Z,24.40
2022-08-26T18:35:10.354Z,25.00
2022-08-26T18:37:37.784Z,25.17
2022-08-26T18:40:07.100Z,25.37
2022-08-26T18:42:35.230Z,24.93
2022-08-26T18:45:15.977Z,25.93
2022-08-26T18:47:43.230Z,27.23
2022-08-26T18:50:11.489Z,25.10
2022-08-26T18:52:38.842Z,25.33
2022-08-26T18:55:07.654Z,22.10
2022-08-26T18:57:36.173Z,20.83
2022-08-26T19:00:11.512Z,21.30
2022-08-26T19:02:38.857Z,18.10
2022-08-26T19:05:07.151Z,18.37
2022-08-26T19:07:45.224Z,17.03
2022-08-26T19:10:14.519Z,16.57
2022-08-26T19:12:42.280Z,16.13
2022-08-26T19:15:09.558Z,15.70
2022-08-26T19:17:37.295Z,14.17
2022-08-26T19:20:09.657Z,15.67
2022-08-26T19:22:37.522Z,13.87
2022-08-26T19:25:06.062Z,14.63
2022-08-26T19:27:33.883Z,14.67
2022-08-26T19:30:00.596Z,13.03
2022-08-26T19:32:27.047Z,14.00
2022-08-26T19:34:54.523Z,14.60
2022-08-26T19:37:24.675Z,15.60
2022-08-26T19:39:51.354Z,14.70
2022-08-26T19:42:17.909Z,14.57
2022-08-26T19:45:03.348Z,13.13
2022-08-26T19:47:31.544Z,11.13
2022-08-26T19:49:58.007Z,9.97
2022-08-26T19:52:30.093Z,8.10
2022-08-26T19:54:57.609Z,7.80
2022-08-26T19:57:24.186Z,6.77
2022-08-26T19:59:50.660Z,7.30
2022-08-26T20:02:18.052Z,6.50
2022-08-26T20:04:44.612Z,6.33
2022-08-26T20:07:15.327Z,6.10
2022-08-26T20:09:45.161Z,5.87
2022-08-26T20:12:12.365Z,6.00
2022-08-26T20:14:42.192Z,5.90
2022-08-26T20:17:13.129Z,5.63
2022-08-26T20:20:01.542Z,5.40
2022-08-26T20:22:28.208Z,5.50
2022-08-26T20:24:54.709Z,5.00
2022-08-26T20:27:38.142Z,5.43
2022-08-26T20:30:07.633Z,5.47
2022-08-26T20:32:36.366Z,5.73
2022-08-26T20:35:04.602Z,5.30
2022-08-26T20:37:31.363Z,4.70
2022-08-26T20:39:58.250Z,5.10
2022-08-26T20:42:26.019Z,5.07
2022-08-26T20:44:54.473Z,4.97
2022-08-26T20:47:22.818Z,4.40
2022-08-26T20:49:52.386Z,4.80
2022-08-26T20:52:21.657Z,4.50
2022-08-26T20:54:48.086Z,5.43
2022-08-26T20:57:14.656Z,5.13
2022-08-26T20:59:42.945Z,5.17
2022-08-26T21:02:09.817Z,4.70
2022-08-26T21:04:38.108Z,4.87
2022-08-26T21:07:06.309Z,4.90
2022-08-26T21:09:33.109Z,4.73
2022-08-26T21:12:00.622Z,4.80
2022-08-26T21:14:28.194Z,4.60
2022-08-26T21:16:56.582Z,4.80
2022-08-26T21:19:23.632Z,4.80
2022-08-26T21:21:50.686Z,4.80
2022-08-26T21:24:17.724Z,4.57
2022-08-26T21:26:45.145Z,4.90
2022-08-26T21:29:13.766Z,4.77
2022-08-26T21:31:46.022Z,5.17
2022-08-26T21:34:16.108Z,4.93
2022-08-26T21:36:42.813Z,5.13
2022-08-26T21:39:11.989Z,4.80
2022-08-26T21:41:42.665Z,5.50
2022-08-26T21:44:17.781Z,5.00
2022-08-26T21:46:45.870Z,4.93
2022-08-26T21:49:15.626Z,4.97
2022-08-26T21:51:46.159Z,4.93
2022-08-26T21:54:13.295Z,4.97
2022-08-26T21:56:46.688Z,4.60
2022-08-26T21:59:18.066Z,5.33
2022-08-26T22:01:45.285Z,5.23
2022-08-26T22:04:11.729Z,5.47
2022-08-26T22:06:47.136Z,5.60
2022-08-26T22:09:15.383Z,6.13
2022-08-26T22:11:42.934Z,5.77
2022-08-26T22:14:10.605Z,7.20
2022-08-26T22:16:38.009Z,7.10
2022-08-26T22:19:05.518Z,7.20
2022-08-26T22:21:32.577Z,6.70
2022-08-26T22:23:59.081Z,7.70
2022-08-26T22:26:29.503Z,6.70
2022-08-26T22:28:58.963Z,6.77
2022-08-26T22:31:37.893Z,6.43
2022-08-26T22:34:08.998Z,6.60
2022-08-26T22:36:43.208Z,6.90
2022-08-26T22:39:14.734Z,6.67
2022-08-26T22:41:43.241Z,5.87
2022-08-26T22:44:11.722Z,6.07
2022-08-26T22:46:39.961Z,6.57
2022-08-26T22:49:09.480Z,6.20
2022-08-26T22:51:43.884Z,6.47
2022-08-26T22:54:10.954Z,5.40
2022-08-26T22:56:40.793Z,5.97
2022-08-26T22:59:12.060Z,6.00
2022-08-26T23:01:42.265Z,5.63
2022-08-26T23:04:13.113Z,5.97
2022-08-26T23:06:43.139Z,6.60
2022-08-26T23:09:10.491Z,5.60
2022-08-26T23:11:39.891Z,6.13
2022-08-26T23:14:09.938Z,5.50
2022-08-26T23:16:41.683Z,6.03
2022-08-26T23:19:10.541Z,5.60
2022-08-26T23:21:38.106Z,5.83
2022-08-26T23:24:06.381Z,5.60
2022-08-26T23:26:34.627Z,6.00
2022-08-26T23:29:02.010Z,5.67
2022-08-26T23:31:28.685Z,5.23
2022-08-26T23:34:13.745Z,5.67
2022-08-26T23:36:42.344Z,5.47
2022-08-26T23:39:10.977Z,5.30
2022-08-26T23:41:38.345Z,5.33
2022-08-26T23:44:12.227Z,5.83
2022-08-26T23:46:39.606Z,5.57
2022-08-26T23:49:06.536Z,5.40
2022-08-26T23:51:51.650Z,5.47
2022-08-26T23:54:19.545Z,5.97
2022-08-26T23:56:46.212Z,5.33
2022-08-26T23:59:12.929Z,6.00
